sensor_id;sensor_type;location;lat;lon;timestamp;pressure;altitude;pressure_sealevel;temperature;humidity
3917;BME280;1973;50.518;7.318;2022-10-13T00:00:55;101469.31;;;9.97;100.00
3917;BME280;1973;50.518;7.318;2022-10-13T00:03:22;101474.16;;;9.95;100.00
3917;BME280;1973;50.518;7.318;2022-10-13T00:05:49;101469.69;;;9.94;100.00
3917;BME280;1973;50.518;7.318;2022-10-13T00:08:18;101468.00;;;9.93;100.00
3917;BME280;1973;50.518;7.318;2022-10-13T00:10:47;101462.50;;;9.93;100.00
3917;BME280;1973;50.518;7.318;2022-10-13T00:13:15;101466.94;;;9.94;100.00
3917;BME280;1973;50.518;7.318;2022-10-13T00:15:43;101464.59;;;9.91;100.00
3917;BME280;1973;50.518;7.318;2022-10-13T00:18:10;101463.72;;;9.91;100.00
3917;BME280;1973;50.518;7.318;2022-10-13T00:20:46;101458.03;;;9.92;100.00
3917;BME280;1973;50.518;7.318;2022-10-13T00:23:13;101456.31;;;9.91;100.00
3917;BME280;1973;50.518;7.318;2022-10-13T00:25:47;101468.88;;;9.94;100.00
3917;BME280;1973;50.518;7.318;2022-10-13T00:28:15;101457.88;;;9.94;100.00
3917;BME280;1973;50.518;7.318;2022-10-13T00:30:42;101457.41;;;9.90;100.00
3917;BME280;1973;50.518;7.318;2022-10-13T00:33:10;101465.44;;;9.92;100.00
3917;BME280;1973;50.518;7.318;2022-10-13T00:35:44;101451.03;;;9.90;100.00
3917;BME280;1973;50.518;7.318;2022-10-13T00:38:11;101454.66;;;9.90;100.00
3917;BME280;1973;50.518;7.318;2022-10-13T00:40:47;101456.16;;;9.93;100.00
3917;BME280;1973;50.518;7.318;2022-10-13T00:43:19;101456.59;;;9.96;100.00
3917;BME280;1973;50.518;7.318;2022-10-13T00:45:46;101445.59;;;9.96;100.00
3917;BME280;1973;50.518;7.318;2022-10-13T00:48:19;101448.81;;;10.00;100.00
3917;BME280;1973;50.518;7.318;2022-10-13T00:50:46;101452.41;;;10.00;100.00
3917;BME280;1973;50.518;7.318;2022-10-13T00:53:14;101446.66;;;9.95;100.00
3917;BME280;1973;50.518;7.318;2022-10-13T00:55:42;101454.91;;;9.95;100.00
3917;BME280;1973;50.518;7.318;2022-10-13T00:58:12;101450.44;;;9.94;100.00
3917;BME280;1973;50.518;7.318;2022-10-13T01:00:45;101449.78;;;9.92;100.00
3917;BME280;1973;50.518;7.318;2022-10-13T01:03:13;101455.69;;;9.89;100.00
3917;BME280;1973;50.518;7.318;2022-10-13T01:05:40;101447.44;;;9.89;100.00
3917;BME280;1973;50.518;7.318;2022-10-13T01:16:00;101443.66;;;9.90;100.00
3917;BME280;1973;50.518;7.318;2022-10-13T01:18:47;101449.34;;;9.89;100.00
3917;BME280;1973;50.518;7.318;2022-10-13T01:40:46;101401.84;;;9.80;100.00
3917;BME280;1973;50.518;7.318;2022-10-13T01:43:21;101403.56;;;9.81;100.00
3917;BME280;1973;50.518;7.318;2022-10-13T01:46:00;101401.44;;;9.83;100.00
3917;BME280;1973;50.518;7.318;2022-10-13T01:48:28;101401.91;;;9.87;100.00
3917;BME280;1973;50.518;7.318;2022-10-13T01:50:57;101405.31;;;9.89;100.00
3917;BME280;1973;50.518;7.318;2022-10-13T01:53:25;101396.91;;;9.90;100.00
3917;BME280;1973;50.518;7.318;2022-10-13T01:55:55;101392.22;;;9.91;100.00
3917;BME280;1973;50.518;7.318;2022-10-13T01:58:24;101393.75;;;9.93;100.00
3917;BME280;1973;50.518;7.318;2022-10-13T02:04:00;101389.47;;;9.91;100.00
3917;BME280;1973;50.518;7.318;2022-10-13T02:06:46;101390.31;;;9.91;100.00
3917;BME280;1973;50.518;7.318;2022-10-13T02:09:29;101381.22;;;9.91;100.00
3917;BME280;1973;50.518;7.318;2022-10-13T02:12:11;101392.22;;;9.91;100.00
3917;BME280;1973;50.518;7.318;2022-10-13T02:14:44;101386.06;;;9.89;100.00
3917;BME280;1973;50.518;7.318;2022-10-13T02:17:12;101387.97;;;9.88;100.00
3917;BME280;1973;50.518;7.318;2022-10-13T02:19:39;101384.38;;;9.88;100.00
3917;BME280;1973;50.518;7.318;2022-10-13T02:22:07;101385.91;;;9.90;100.00
3917;BME280;1973;50.518;7.318;2022-10-13T02:24:36;101377.81;;;9.89;100.00
3917;BME280;1973;50.518;7.318;2022-10-13T02:27:04;101374.88;;;9.90;100.00
3917;BME280;1973;50.518;7.318;2022-10-13T02:29:31;101361.13;;;9.90;100.00
3917;BME280;1973;50.518;7.318;2022-10-13T02:31:58;101362.19;;;9.89;100.00
3917;BME280;1973;50.518;7.318;2022-10-13T02:34:24;101364.72;;;9.91;100.00
3917;BME280;1973;50.518;7.318;2022-10-13T02:36:51;101363.03;;;9.90;100.00
3917;BME280;1973;50.518;7.318;2022-10-13T02:39:17;101363.88;;;9.90;100.00
3917;BME280;1973;50.518;7.318;2022-10-13T02:41:44;101363.88;;;9.90;100.00
3917;BME280;1973;50.518;7.318;2022-10-13T02:44:10;101369.00;;;9.93;100.00
3917;BME280;1973;50.518;7.318;2022-10-13T02:46:37;101368.59;;;9.96;100.00
3917;BME280;1973;50.518;7.318;2022-10-13T02:49:03;101360.97;;;9.98;100.00
3917;BME280;1973;50.518;7.318;2022-10-13T02:51:29;101367.78;;;10.02;100.00
3917;BME280;1973;50.518;7.318;2022-10-13T02:53:59;101365.72;;;10.04;100.00
3917;BME280;1973;50.518;7.318;2022-10-13T02:56:25;101364.44;;;10.07;100.00
3917;BME280;1973;50.518;7.318;2022-10-13T02:58:52;101367.84;;;10.09;100.00
3917;BME280;1973;50.518;7.318;2022-10-13T03:01:18;101367.66;;;10.10;100.00
3917;BME280;1973;50.518;7.318;2022-10-13T03:03:45;101369.38;;;10.11;100.00
3917;BME280;1973;50.518;7.318;2022-10-13T03:06:11;101372.13;;;10.11;100.00
3917;BME280;1973;50.518;7.318;2022-10-13T03:08:38;101372.13;;;10.11;100.00
3917;BME280;1973;50.518;7.318;2022-10-13T03:11:04;101375.28;;;10.08;100.00
3917;BME280;1973;50.518;7.318;2022-10-13T03:13:31;101373.34;;;10.09;100.00
3917;BME280;1973;50.518;7.318;2022-10-13T03:15:57;101378.22;;;10.07;100.00
3917;BME280;1973;50.518;7.318;2022-10-13T03:18:23;101372.88;;;10.05;100.00
3917;BME280;1973;50.518;7.318;2022-10-13T03:20:58;101371.38;;;10.03;100.00
3917;BME280;1973;50.518;7.318;2022-10-13T03:23:26;101375.19;;;10.02;100.00
3917;BME280;1973;50.518;7.318;2022-10-13T03:25:52;101377.13;;;10.01;100.00
3917;BME280;1973;50.518;7.318;2022-10-13T03:28:19;101379.88;;;10.01;100.00
3917;BME280;1973;50.518;7.318;2022-10-13T03:30:46;101386.41;;;10.00;100.00
3917;BME280;1973;50.518;7.318;2022-10-13T03:33:13;101384.50;;;10.01;100.00
3917;BME280;1973;50.518;7.318;2022-10-13T03:35:39;101378.78;;;10.02;100.00
3917;BME280;1973;50.518;7.318;2022-10-13T03:38:06;101380.50;;;10.03;100.00
3917;BME280;1973;50.518;7.318;2022-10-13T03:40:34;101385.16;;;10.03;100.00
3917;BME280;1973;50.518;7.318;2022-10-13T03:43:01;101383.44;;;10.02;100.00
3917;BME280;1973;50.518;7.318;2022-10-13T03:45:27;101377.75;;;10.03;100.00
3917;BME280;1973;50.518;7.318;2022-10-13T03:47:56;101381.34;;;10.04;100.00
3917;BME280;1973;50.518;7.318;2022-10-13T03:50:23;101381.34;;;10.04;100.00
3917;BME280;1973;50.518;7.318;2022-10-13T03:52:49;101367.38;;;10.05;100.00
3917;BME280;1973;50.518;7.318;2022-10-13T03:55:16;101367.00;;;10.08;100.00
3917;BME280;1973;50.518;7.318;2022-10-13T03:57:42;101364.91;;;10.10;100.00
3917;BME280;1973;50.518;7.318;2022-10-13T04:00:09;101361.09;;;10.11;100.00
3917;BME280;1973;50.518;7.318;2022-10-13T04:02:36;101355.59;;;10.11;100.00
3917;BME280;1973;50.518;7.318;2022-10-13T04:05:02;101349.88;;;10.13;100.00
3917;BME280;1973;50.518;7.318;2022-10-13T04:07:29;101342.50;;;10.13;100.00
3917;BME280;1973;50.518;7.318;2022-10-13T04:09:55;101336.63;;;10.16;100.00
3917;BME280;1973;50.518;7.318;2022-10-13T04:12:21;101321.81;;;10.17;100.00
3917;BME280;1973;50.518;7.318;2022-10-13T04:14:49;101325.59;;;10.16;100.00
3917;BME280;1973;50.518;7.318;2022-10-13T04:17:15;101328.16;;;10.18;100.00
3917;BME280;1973;50.518;7.318;2022-10-13T04:19:41;101325.22;;;10.19;100.00
3917;BME280;1973;50.518;7.318;2022-10-13T04:22:08;101322.47;;;10.19;100.00
3917;BME280;1973;50.518;7.318;2022-10-13T04:24:34;101318.47;;;10.22;100.00
3917;BME280;1973;50.518;7.318;2022-10-13T04:27:01;101323.13;;;10.21;100.00
3917;BME280;1973;50.518;7.318;2022-10-13T04:29:27;101320.19;;;10.23;100.00
3917;BME280;1973;50.518;7.318;2022-10-13T04:31:54;101321.84;;;10.24;100.00
3917;BME280;1973;50.518;7.318;2022-10-13T04:34:20;101318.06;;;10.25;100.00
3917;BME280;1973;50.518;7.318;2022-10-13T04:36:49;101311.28;;;10.27;100.00
3917;BME280;1973;50.518;7.318;2022-10-13T04:39:15;101314.72;;;10.30;100.00
3917;BME280;1973;50.518;7.318;2022-10-13T04:41:43;101311.56;;;10.33;100.00
3917;BME280;1973;50.518;7.318;2022-10-13T04:44:09;101310.50;;;10.34;100.00
3917;BME280;1973;50.518;7.318;2022-10-13T04:46:36;101317.72;;;10.35;100.00
3917;BME280;1973;50.518;7.318;2022-10-13T04:49:02;101310.50;;;10.34;100.00
3917;BME280;1973;50.518;7.318;2022-10-13T04:51:29;101313.03;;;10.35;100.00
3917;BME280;1973;50.518;7.318;2022-10-13T04:53:57;101304.59;;;10.37;100.00
3917;BME280;1973;50.518;7.318;2022-10-13T04:56:24;101311.81;;;10.38;100.00
3917;BME280;1973;50.518;7.318;2022-10-13T04:58:51;101301.66;;;10.38;100.00
3917;BME280;1973;50.518;7.318;2022-10-13T05:01:20;101297.84;;;10.39;100.00
3917;BME280;1973;50.518;7.318;2022-10-13T05:03:56;101296.16;;;10.38;100.00
3917;BME280;1973;50.518;7.318;2022-10-13T05:06:25;101297.84;;;10.39;100.00
3917;BME280;1973;50.518;7.318;2022-10-13T05:08:52;101294.22;;;10.39;100.00
3917;BME280;1973;50.518;7.318;2022-10-13T05:11:19;101293.19;;;10.40;100.00
3917;BME280;1973;50.518;7.318;2022-10-13T05:13:47;101283.44;;;10.37;100.00
3917;BME280;1973;50.518;7.318;2022-10-13T05:16:15;101292.53;;;10.38;100.00
3917;BME280;1973;50.518;7.318;2022-10-13T05:18:41;101287.03;;;10.38;100.00
3917;BME280;1973;50.518;7.318;2022-10-13T05:21:20;101284.28;;;10.38;100.00
3917;BME280;1973;50.518;7.318;2022-10-13T05:23:47;101281.53;;;10.38;100.00
3917;BME280;1973;50.518;7.318;2022-10-13T05:26:17;101285.97;;;10.39;100.00
3917;BME280;1973;50.518;7.318;2022-10-13T05:28:44;101297.63;;;10.41;100.00
3917;BME280;1973;50.518;7.318;2022-10-13T05:31:19;101290.00;;;10.43;100.00
3917;BME280;1973;50.518;7.318;2022-10-13T05:33:46;101290.69;;;10.45;100.00
3917;BME280;1973;50.518;7.318;2022-10-13T05:36:16;101289.59;;;10.46;100.00
3917;BME280;1973;50.518;7.318;2022-10-13T05:38:43;101291.31;;;10.47;100.00
3917;BME280;1973;50.518;7.318;2022-10-13T05:41:12;101293.66;;;10.50;100.00
3917;BME280;1973;50.518;7.318;2022-10-13T05:43:40;101281.59;;;10.51;100.00
3917;BME280;1973;50.518;7.318;2022-10-13T05:46:07;101287.78;;;10.53;100.00
3917;BME280;1973;50.518;7.318;2022-10-13T05:48:34;101290.09;;;10.56;100.00
3917;BME280;1973;50.518;7.318;2022-10-13T05:51:02;101291.78;;;10.57;100.00
3917;BME280;1973;50.518;7.318;2022-10-13T05:53:33;101292.88;;;10.56;100.00
3917;BME280;1973;50.518;7.318;2022-10-13T05:56:06;101293.28;;;10.53;100.00
3917;BME280;1973;50.518;7.318;2022-10-13T05:58:37;101271.84;;;10.48;100.00
3917;BME280;1973;50.518;7.318;2022-10-13T06:01:11;101285.19;;;10.45;100.00
3917;BME280;1973;50.518;7.318;2022-10-13T06:03:38;101267.81;;;10.44;100.00
3917;BME280;1973;50.518;7.318;2022-10-13T06:06:07;101266.94;;;10.44;100.00
3917;BME280;1973;50.518;7.318;2022-10-13T06:08:35;101266.75;;;10.45;100.00
3917;BME280;1973;50.518;7.318;2022-10-13T06:11:03;101263.16;;;10.45;100.00
3917;BME280;1973;50.518;7.318;2022-10-13T06:13:30;101277.97;;;10.44;100.00
3917;BME280;1973;50.518;7.318;2022-10-13T06:15:57;101282.41;;;10.45;100.00
3917;BME280;1973;50.518;7.318;2022-10-13T06:18:23;101274.16;;;10.45;100.00
3917;BME280;1973;50.518;7.318;2022-10-13T06:20:50;101273.50;;;10.43;100.00
3917;BME280;1973;50.518;7.318;2022-10-13T06:23:16;101269.50;;;10.45;100.00
3917;BME280;1973;50.518;7.318;2022-10-13T06:25:47;101273.94;;;10.46;100.00
3917;BME280;1973;50.518;7.318;2022-10-13T06:28:14;101275.84;;;10.46;100.00
3917;BME280;1973;50.518;7.318;2022-10-13T06:30:41;101270.34;;;10.46;100.00
3917;BME280;1973;50.518;7.318;2022-10-13T06:33:12;101272.03;;;10.47;100.00
3917;BME280;1973;50.518;7.318;2022-10-13T06:35:39;101269.97;;;10.49;100.00
3917;BME280;1973;50.518;7.318;2022-10-13T06:38:05;101264.03;;;10.52;100.00
3917;BME280;1973;50.518;7.318;2022-10-13T06:40:31;101269.31;;;10.53;100.00
3917;BME280;1973;50.518;7.318;2022-10-13T06:42:58;101267.22;;;10.55;100.00
3917;BME280;1973;50.518;7.318;2022-10-13T06:45:24;101272.50;;;10.57;100.00
3917;BME280;1973;50.518;7.318;2022-10-13T06:47:52;101276.97;;;10.58;100.00
3917;BME280;1973;50.518;7.318;2022-10-13T06:50:20;101266.81;;;10.58;100.00
3917;BME280;1973;50.518;7.318;2022-10-13T06:52:47;101269.38;;;10.60;100.00
3917;BME280;1973;50.518;7.318;2022-10-13T06:55:13;101270.00;;;10.62;100.00
3917;BME280;1973;50.518;7.318;2022-10-13T06:57:40;101274.25;;;10.64;100.00
3917;BME280;1973;50.518;7.318;2022-10-13T07:00:07;101269.19;;;10.68;100.00
3917;BME280;1973;50.518;7.318;2022-10-13T07:02:34;101268.78;;;10.71;100.00
3917;BME280;1973;50.518;7.318;2022-10-13T07:05:00;101274.53;;;10.76;100.00
3917;BME280;1973;50.518;7.318;2022-10-13T07:07:27;101276.84;;;10.79;100.00
3917;BME280;1973;50.518;7.318;2022-10-13T07:09:53;101273.50;;;10.84;100.00
3917;BME280;1973;50.518;7.318;2022-10-13T07:12:19;101279.03;;;10.90;100.00
3917;BME280;1973;50.518;7.318;2022-10-13T07:14:47;101269.72;;;10.98;100.00
3917;BME280;1973;50.518;7.318;2022-10-13T07:17:14;101273.56;;;11.03;100.00
3917;BME280;1973;50.518;7.318;2022-10-13T07:19:40;101272.75;;;11.09;100.00
3917;BME280;1973;50.518;7.318;2022-10-13T07:22:07;101273.59;;;11.16;100.00
3917;BME280;1973;50.518;7.318;2022-10-13T07:24:33;101272.78;;;11.22;100.00
3917;BME280;1973;50.518;7.318;2022-10-13T07:27:00;101269.00;;;11.30;100.00
3917;BME280;1973;50.518;7.318;2022-10-13T07:29:32;101271.75;;;11.37;100.00
3917;BME280;1973;50.518;7.318;2022-10-13T07:31:59;101270.72;;;11.44;100.00
3917;BME280;1973;50.518;7.318;2022-10-13T07:34:25;101267.75;;;11.52;100.00
3917;BME280;1973;50.518;7.318;2022-10-13T07:36:52;101278.38;;;11.62;100.00
3917;BME280;1973;50.518;7.318;2022-10-13T07:39:18;101269.88;;;11.70;100.00
3917;BME280;1973;50.518;7.318;2022-10-13T07:41:45;101278.00;;;11.78;100.00
3917;BME280;1973;50.518;7.318;2022-10-13T07:44:16;101268.44;;;11.87;100.00
3917;BME280;1973;50.518;7.318;2022-10-13T07:46:42;101269.06;;;11.96;100.00
3917;BME280;1973;50.518;7.318;2022-10-13T07:49:09;101257.59;;;12.05;100.00
3917;BME280;1973;50.518;7.318;2022-10-13T07:51:41;101253.75;;;12.13;100.00
3917;BME280;1973;50.518;7.318;2022-10-13T07:54:08;101250.97;;;12.19;100.00
3917;BME280;1973;50.518;7.318;2022-10-13T07:56:35;101254.19;;;12.23;100.00
3917;BME280;1973;50.518;7.318;2022-10-13T07:59:02;101245.25;;;12.28;100.00
3917;BME280;1973;50.518;7.318;2022-10-13T08:01:30;101256.28;;;12.28;100.00
3917;BME280;1973;50.518;7.318;2022-10-13T08:03:57;101251.19;;;12.31;100.00
3917;BME280;1973;50.518;7.318;2022-10-13T08:06:24;101250.75;;;12.34;100.00
3917;BME280;1973;50.518;7.318;2022-10-13T08:08:51;101246.72;;;12.37;100.00
3917;BME280;1973;50.518;7.318;2022-10-13T08:11:18;101249.91;;;12.40;100.00
3917;BME280;1973;50.518;7.318;2022-10-13T08:13:48;101244.78;;;12.44;100.00
3917;BME280;1973;50.518;7.318;2022-10-13T08:16:16;101248.16;;;12.46;100.00
3917;BME280;1973;50.518;7.318;2022-10-13T08:18:43;101252.44;;;12.48;100.00
3917;BME280;1973;50.518;7.318;2022-10-13T08:21:15;101248.16;;;12.52;100.00
3917;BME280;1973;50.518;7.318;2022-10-13T08:24:06;101250.69;;;12.54;100.00
3917;BME280;1973;50.518;7.318;2022-10-13T08:26:34;101244.72;;;12.57;100.00
3917;BME280;1973;50.518;7.318;2022-10-13T08:29:00;101248.56;;;12.56;100.00
3917;BME280;1973;50.518;7.318;2022-10-13T08:31:47;101239.66;;;12.54;100.00
3917;BME280;1973;50.518;7.318;2022-10-13T08:34:18;101230.50;;;12.53;100.00
3917;BME280;1973;50.518;7.318;2022-10-13T08:36:45;101213.94;;;12.53;100.00
3917;BME280;1973;50.518;7.318;2022-10-13T08:39:11;101206.06;;;12.57;100.00
3917;BME280;1973;50.518;7.318;2022-10-13T08:41:41;101220.69;;;12.64;100.00
3917;BME280;1973;50.518;7.318;2022-10-13T08:44:43;101222.16;;;12.73;100.00
3917;BME280;1973;50.518;7.318;2022-10-13T08:50:10;101232.03;;;13.00;100.00
3917;BME280;1973;50.518;7.318;2022-10-13T08:55:19;101243.63;;;13.15;100.00
3917;BME280;1973;50.518;7.318;2022-10-13T08:57:47;101233.88;;;13.13;100.00
3917;BME280;1973;50.518;7.318;2022-10-13T09:00:13;101230.66;;;13.23;100.00
3917;BME280;1973;50.518;7.318;2022-10-13T09:02:42;101219.69;;;13.34;100.00
3917;BME280;1973;50.518;7.318;2022-10-13T09:05:15;101213.03;;;13.48;100.00
3917;BME280;1973;50.518;7.318;2022-10-13T09:07:45;101213.97;;;13.60;100.00
3917;BME280;1973;50.518;7.318;2022-10-13T09:10:11;101208.53;;;13.72;100.00
3917;BME280;1973;50.518;7.318;2022-10-13T09:12:39;101213.81;;;13.80;100.00
3917;BME280;1973;50.518;7.318;2022-10-13T09:15:08;101203.59;;;13.81;100.00
3917;BME280;1973;50.518;7.318;2022-10-13T09:17:37;101206.28;;;13.87;100.00
3917;BME280;1973;50.518;7.318;2022-10-13T09:20:21;101199.41;;;13.96;100.00
3917;BME280;1973;50.518;7.318;2022-10-13T09:25:41;101204.25;;;14.19;100.00
3917;BME280;1973;50.518;7.318;2022-10-13T09:28:15;101199.84;;;14.36;100.00
3917;BME280;1973;50.518;7.318;2022-10-13T09:30:44;101199.22;;;14.52;100.00
3917;BME280;1973;50.518;7.318;2022-10-13T09:33:21;101195.28;;;14.60;100.00
3917;BME280;1973;50.518;7.318;2022-10-13T09:38:25;101199.75;;;14.61;100.00
3917;BME280;1973;50.518;7.318;2022-10-13T09:43:35;101193.75;;;14.64;100.00
3917;BME280;1973;50.518;7.318;2022-10-13T09:46:23;101188.03;;;14.77;100.00
3917;BME280;1973;50.518;7.318;2022-10-13T09:48:56;101195.41;;;14.83;100.00
3917;BME280;1973;50.518;7.318;2022-10-13T09:53:59;101196.66;;;14.69;100.00
3917;BME280;1973;50.518;7.318;2022-10-13T09:56:45;101193.25;;;14.67;100.00
3917;BME280;1973;50.518;7.318;2022-10-13T09:59:27;101186.53;;;14.63;100.00
3917;BME280;1973;50.518;7.318;2022-10-13T10:02:00;101199.28;;;14.64;100.00
3917;BME280;1973;50.518;7.318;2022-10-13T10:04:35;101190.66;;;14.72;100.00
3917;BME280;1973;50.518;7.318;2022-10-13T10:07:25;101189.03;;;14.65;100.00
3917;BME280;1973;50.518;7.318;2022-10-13T10:09:57;101186.91;;;14.67;100.00
3917;BME280;1973;50.518;7.318;2022-10-13T10:12:28;101191.59;;;14.66;100.00
3917;BME280;1973;50.518;7.318;2022-10-13T10:14:55;101185.97;;;14.73;100.00
3917;BME280;1973;50.518;7.318;2022-10-13T10:17:50;101189.97;;;14.77;100.00
3917;BME280;1973;50.518;7.318;2022-10-13T10:20:39;101184.16;;;14.78;100.00
3917;BME280;1973;50.518;7.318;2022-10-13T10:23:11;101179.84;;;14.82;100.00
3917;BME280;1973;50.518;7.318;2022-10-13T10:25:53;101176.28;;;14.93;100.00
3917;BME280;1973;50.518;7.318;2022-10-13T10:28:58;101177.50;;;14.97;100.00
3917;BME280;1973;50.518;7.318;2022-10-13T10:34:36;101172.97;;;15.03;100.00
3917;BME280;1973;50.518;7.318;2022-10-13T10:37:14;101169.97;;;15.16;100.00
3917;BME280;1973;50.518;7.318;2022-10-13T10:43:55;101149.28;;;15.42;100.00
3917;BME280;1973;50.518;7.318;2022-10-13T10:45:58;101153.69;;;15.61;100.00
3917;BME280;1973;50.518;7.318;2022-10-13T10:48:35;101146.09;;;15.68;100.00
3917;BME280;1973;50.518;7.318;2022-10-13T10:51:05;101136.69;;;15.92;100.00
3917;BME280;1973;50.518;7.318;2022-10-13T10:56:36;101129.16;;;16.16;100.00
3917;BME280;1973;50.518;7.318;2022-10-13T10:59:19;101125.88;;;16.19;100.00
3917;BME280;1973;50.518;7.318;2022-10-13T11:02:01;101130.34;;;16.32;100.00
3917;BME280;1973;50.518;7.318;2022-10-13T11:04:45;101115.72;;;16.36;100.00
3917;BME280;1973;50.518;7.318;2022-10-13T11:17:27;101097.44;;;17.59;100.00
3917;BME280;1973;50.518;7.318;2022-10-13T11:19:55;101085.22;;;17.98;100.00
3917;BME280;1973;50.518;7.318;2022-10-13T11:22:26;101082.13;;;18.16;100.00
3917;BME280;1973;50.518;7.318;2022-10-13T11:27:58;101070.44;;;18.19;100.00
3917;BME280;1973;50.518;7.318;2022-10-13T11:30:54;101077.50;;;18.05;100.00
3917;BME280;1973;50.518;7.318;2022-10-13T11:53:23;101059.34;;;18.68;100.00
3917;BME280;1973;50.518;7.318;2022-10-13T11:55:57;101050.72;;;18.69;100.00
3917;BME280;1973;50.518;7.318;2022-10-13T11:58:41;101037.56;;;18.65;100.00
3917;BME280;1973;50.518;7.318;2022-10-13T12:01:12;101047.19;;;18.79;100.00
3917;BME280;1973;50.518;7.318;2022-10-13T12:03:44;101039.28;;;18.98;100.00
3917;BME280;1973;50.518;7.318;2022-10-13T12:08:45;101029.06;;;19.45;100.00
3917;BME280;1973;50.518;7.318;2022-10-13T12:11:27;101029.72;;;19.62;100.00
3917;BME280;1973;50.518;7.318;2022-10-13T12:13:54;101035.03;;;19.59;100.00
3917;BME280;1973;50.518;7.318;2022-10-13T12:16:21;101036.28;;;19.41;100.00
3917;BME280;1973;50.518;7.318;2022-10-13T12:18:48;101025.91;;;19.36;100.00
3917;BME280;1973;50.518;7.318;2022-10-13T12:21:20;101030.06;;;19.34;100.00
3917;BME280;1973;50.518;7.318;2022-10-13T12:23:49;101029.94;;;19.19;100.00
3917;BME280;1973;50.518;7.318;2022-10-13T12:26:18;101029.81;;;18.99;100.00
3917;BME280;1973;50.518;7.318;2022-10-13T12:28:51;101026.63;;;18.90;100.00
3917;BME280;1973;50.518;7.318;2022-10-13T12:33:59;101027.56;;;18.69;100.00
3917;BME280;1973;50.518;7.318;2022-10-13T12:36:28;101024.47;;;18.65;100.00
3917;BME280;1973;50.518;7.318;2022-10-13T12:39:04;101028.78;;;18.51;100.00
3917;BME280;1973;50.518;7.318;2022-10-13T12:41:38;101020.84;;;18.43;100.00
3917;BME280;1973;50.518;7.318;2022-10-13T12:44:14;101015.81;;;18.45;100.00
3917;BME280;1973;50.518;7.318;2022-10-13T12:46:50;101017.97;;;18.38;100.00
3917;BME280;1973;50.518;7.318;2022-10-13T12:49:23;101012.94;;;18.35;100.00
3917;BME280;1973;50.518;7.318;2022-10-13T12:51:53;101009.22;;;18.29;100.00
3917;BME280;1973;50.518;7.318;2022-10-13T12:54:24;101002.00;;;18.28;100.00
3917;BME280;1973;50.518;7.318;2022-10-13T12:56:55;101023.16;;;18.29;100.00
3917;BME280;1973;50.518;7.318;2022-10-13T12:59:23;101009.97;;;18.20;100.00
3917;BME280;1973;50.518;7.318;2022-10-13T13:01:52;101014.97;;;18.18;100.00
3917;BME280;1973;50.518;7.318;2022-10-13T13:06:59;101000.41;;;18.11;100.00
3917;BME280;1973;50.518;7.318;2022-10-13T13:09:28;100998.72;;;18.10;100.00
3917;BME280;1973;50.518;7.318;2022-10-13T13:14:44;100997.53;;;18.06;100.00
3917;BME280;1973;50.518;7.318;2022-10-13T13:20:18;100999.38;;;17.95;100.00
3917;BME280;1973;50.518;7.318;2022-10-13T13:22:44;101014.59;;;17.87;100.00
3917;BME280;1973;50.518;7.318;2022-10-13T13:25:11;101015.34;;;17.83;100.00
3917;BME280;1973;50.518;7.318;2022-10-13T13:27:38;101018.91;;;17.78;100.00
3917;BME280;1973;50.518;7.318;2022-10-13T13:30:11;101013.94;;;17.80;100.00
3917;BME280;1973;50.518;7.318;2022-10-13T13:32:38;101011.41;;;17.79;100.00
3917;BME280;1973;50.518;7.318;2022-10-13T13:35:06;101013.28;;;17.73;100.00
3917;BME280;1973;50.518;7.318;2022-10-13T13:37:36;101021.81;;;17.67;100.00
3917;BME280;1973;50.518;7.318;2022-10-13T13:40:05;101008.34;;;17.59;100.00
3917;BME280;1973;50.518;7.318;2022-10-13T13:42:32;101010.28;;;17.58;100.00
3917;BME280;1973;50.518;7.318;2022-10-13T13:44:58;101000.44;;;17.56;100.00
3917;BME280;1973;50.518;7.318;2022-10-13T13:47:27;101006.81;;;17.51;100.00
3917;BME280;1973;50.518;7.318;2022-10-13T13:49:54;101005.63;;;17.47;100.00
3917;BME280;1973;50.518;7.318;2022-10-13T13:52:22;101003.59;;;17.42;100.00
3917;BME280;1973;50.518;7.318;2022-10-13T13:54:49;101002.19;;;17.40;100.00
3917;BME280;1973;50.518;7.318;2022-10-13T13:57:16;100994.59;;;17.35;100.00
3917;BME280;1973;50.518;7.318;2022-10-13T13:59:44;100996.78;;;17.33;100.00
3917;BME280;1973;50.518;7.318;2022-10-13T14:02:17;100980.34;;;17.32;100.00
3917;BME280;1973;50.518;7.318;2022-10-13T14:04:44;100978.66;;;17.31;100.00
3917;BME280;1973;50.518;7.318;2022-10-13T14:07:11;100979.25;;;17.33;100.00
3917;BME280;1973;50.518;7.318;2022-10-13T14:09:38;100980.94;;;17.34;100.00
3917;BME280;1973;50.518;7.318;2022-10-13T14:12:04;100984.88;;;17.38;100.00
3917;BME280;1973;50.518;7.318;2022-10-13T14:14:31;100988.28;;;17.40;100.00
3917;BME280;1973;50.518;7.318;2022-10-13T14:16:59;100988.84;;;17.42;100.00
3917;BME280;1973;50.518;7.318;2022-10-13T14:19:26;100975.44;;;17.39;100.00
3917;BME280;1973;50.518;7.318;2022-10-13T14:21:53;100983.47;;;17.35;100.00
3917;BME280;1973;50.518;7.318;2022-10-13T14:24:19;100976.72;;;17.31;100.00
3917;BME280;1973;50.518;7.318;2022-10-13T14:26:46;100973.00;;;17.26;100.00
3917;BME280;1973;50.518;7.318;2022-10-13T14:29:12;100966.03;;;17.23;100.00
3917;BME280;1973;50.518;7.318;2022-10-13T14:31:39;100967.91;;;17.18;100.00
3917;BME280;1973;50.518;7.318;2022-10-13T14:34:06;100964.50;;;17.16;100.00
3917;BME280;1973;50.518;7.318;2022-10-13T14:36:33;100970.00;;;17.11;100.00
3917;BME280;1973;50.518;7.318;2022-10-13T14:38:59;100961.34;;;17.07;100.00
3917;BME280;1973;50.518;7.318;2022-10-13T14:41:26;100961.50;;;17.00;100.00
3917;BME280;1973;50.518;7.318;2022-10-13T14:43:53;100968.06;;;16.94;100.00
3917;BME280;1973;50.518;7.318;2022-10-13T14:46:21;100959.13;;;16.92;100.00
3917;BME280;1973;50.518;7.318;2022-10-13T14:48:48;100961.09;;;16.92;100.00
3917;BME280;1973;50.518;7.318;2022-10-13T14:51:15;100962.69;;;16.88;100.00
3917;BME280;1973;50.518;7.318;2022-10-13T14:53:44;100957.13;;;16.88;100.00
3917;BME280;1973;50.518;7.318;2022-10-13T14:56:22;100961.56;;;16.89;100.00
3917;BME280;1973;50.518;7.318;2022-10-13T14:58:50;100961.84;;;16.87;100.00